Time;durP1;ratioP1;P1;durP2;ratioP2;P2;SDS_P1;SDS_P2;PMS_P1;PMS_P2;Temp;Humidity;BMP_temperature;BMP_pressure;BME280_temperature;BME280_humidity;BME280_pressure;Samples;Min_cycle;Max_cycle;Signal;HPM_P1;HPM_P2
2022/04/29 00:02:23;;;;;;;15.95;7.63;;;;;;;8.02;71.60;102965.06;7388381;19;20471;-54
2022/04/29 00:04:52;;;;;;;17.00;7.80;;;;;;;8.19;71.10;102962.47;7385540;19;20026;-55
2022/04/29 00:07:21;;;;;;;14.50;7.35;;;;;;;8.13;71.60;102958.09;7386160;19;20452;-54
2022/04/29 00:09:52;;;;;;;15.13;7.95;;;;;;;8.18;71.00;102964.22;7387658;19;20468;-57
2022/04/29 00:12:21;;;;;;;19.63;7.95;;;;;;;8.13;71.07;102973.78;7390888;19;20063;-54
2022/04/29 00:14:50;;;;;;;16.83;8.02;;;;;;;7.94;71.66;102959.84;7386553;19;20514;-53
2022/04/29 00:17:19;;;;;;;16.63;7.68;;;;;;;8.01;71.85;102966.81;7388786;19;20018;-57
2022/04/29 00:19:51;;;;;;;13.43;7.72;;;;;;;8.00;71.91;102953.75;7387959;19;20503;-59
2022/04/29 00:22:21;;;;;;;17.52;8.02;;;;;;;7.94;71.88;102954.63;7387592;19;20101;-57
2022/04/29 00:24:50;;;;;;;15.90;8.25;;;;;;;7.96;71.94;102955.47;7385090;19;20416;-58
2022/04/29 00:27:19;;;;;;;18.02;8.18;;;;;;;8.02;71.74;102947.66;7385440;19;20356;-61
2022/04/29 00:29:48;;;;;;;15.43;8.43;;;;;;;8.03;71.69;102938.94;7386316;19;20022;-58
2022/04/29 00:32:17;;;;;;;18.92;9.05;;;;;;;7.72;72.60;102951.97;7385633;19;20018;-60
2022/04/29 00:34:46;;;;;;;16.02;9.27;;;;;;;7.78;72.86;102943.28;7383107;19;20034;-60
2022/04/29 00:37:17;;;;;;;17.40;8.90;;;;;;;7.79;73.17;102938.06;7386398;19;20014;-60
2022/04/29 00:39:46;;;;;;;15.00;9.32;;;;;;;7.87;72.24;102940.69;7384864;19;20509;-60
2022/04/29 00:42:17;;;;;;;16.42;8.75;;;;;;;7.67;72.99;102942.41;7386276;19;20018;-60
2022/04/29 00:44:47;;;;;;;18.35;8.95;;;;;;;7.54;73.44;102944.97;7385871;19;20018;-63
2022/04/29 00:47:19;;;;;;;18.73;8.98;;;;;;;7.67;73.37;102948.47;7384827;19;20476;-60
2022/04/29 00:49:49;;;;;;;22.20;9.32;;;;;;;7.61;73.37;102946.72;7384510;19;20021;-61
2022/04/29 00:52:23;;;;;;;19.95;8.85;;;;;;;7.41;74.20;102935.38;7391955;19;20082;-61
2022/04/29 00:54:57;;;;;;;17.02;9.77;;;;;;;7.42;74.17;102940.59;7390730;19;20025;-61
2022/04/29 00:57:31;;;;;;;17.30;10.43;;;;;;;7.60;73.73;102941.50;7393495;19;20330;-61
2022/04/29 01:00:06;;;;;;;18.05;9.98;;;;;;;7.49;73.71;102936.25;7391112;19;20011;-61
2022/04/29 01:02:36;;;;;;;21.25;10.40;;;;;;;7.40;74.42;102939.69;7391340;19;20022;-59
2022/04/29 01:05:07;;;;;;;22.10;10.45;;;;;;;7.44;74.42;102938.84;7390925;19;20922;-60
2022/04/29 01:07:40;;;;;;;19.42;10.50;;;;;;;7.61;73.98;102935.41;7390245;19;20037;-60
2022/04/29 01:10:12;;;;;;;17.20;10.20;;;;;;;7.40;74.43;102931.88;7392007;19;20017;-62
2022/04/29 01:12:42;;;;;;;16.23;9.38;;;;;;;7.31;74.78;102929.25;7392121;19;20018;-60
2022/04/29 01:15:14;;;;;;;18.92;10.93;;;;;;;7.23;75.10;102926.59;7390163;19;20014;-63
2022/04/29 01:17:45;;;;;;;17.70;10.13;;;;;;;7.32;74.82;102931.00;7390933;19;20018;-62
2022/04/29 01:20:17;;;;;;;21.98;10.90;;;;;;;7.36;75.12;102916.22;7389953;19;20014;-60
2022/04/29 01:22:49;;;;;;;23.25;11.20;;;;;;;7.21;75.52;102917.91;7393135;19;20022;-61
2022/04/29 01:25:18;;;;;;;18.08;10.77;;;;;;;7.32;74.85;102915.34;7391924;19;20025;-59
2022/04/29 01:27:52;;;;;;;17.63;11.35;;;;;;;7.28;75.21;102911.84;7391471;19;20022;-58
2022/04/29 01:30:23;;;;;;;23.15;11.02;;;;;;;7.12;75.65;102911.78;7389236;19;20025;-60
2022/04/29 01:32:55;;;;;;;20.63;11.48;;;;;;;7.24;75.71;102917.06;7390725;19;20014;-60
2022/04/29 01:35:24;;;;;;;19.75;11.10;;;;;;;7.21;75.49;102910.09;7391678;19;20018;-57
2022/04/29 01:37:56;;;;;;;20.02;11.60;;;;;;;7.10;75.96;102903.94;7390623;19;20376;-60
2022/04/29 01:40:25;;;;;;;18.95;11.48;;;;;;;7.09;76.12;102902.19;7389642;19;20030;-60
2022/04/29 01:42:54;;;;;;;20.58;11.25;;;;;;;7.23;75.78;102895.31;7389260;19;20075;-59
2022/04/29 01:45:23;;;;;;;21.35;11.75;;;;;;;7.25;75.73;102901.41;7392540;19;20011;-61
2022/04/29 01:48:02;;;;;;;22.35;11.98;;;;;;;7.31;75.22;102895.34;7388023;19;20108;-61
2022/04/29 01:51:09;;;;;;;22.45;11.68;;;;;;;7.21;75.76;102896.19;7389980;19;20090;-60
2022/04/29 01:53:43;;;;;;;20.70;12.35;;;;;;;7.26;75.59;102897.94;7389277;19;20034;-61
2022/04/29 01:56:12;;;;;;;23.27;12.27;;;;;;;7.01;76.44;102890.91;7390109;19;20042;-60
2022/04/29 01:58:41;;;;;;;24.25;12.45;;;;;;;7.02;76.04;102896.13;7389862;19;20022;-61
2022/04/29 02:01:10;;;;;;;23.38;11.70;;;;;;;6.99;76.60;102898.72;7389894;19;20091;-60
2022/04/29 02:03:40;;;;;;;20.33;11.77;;;;;;;6.91;76.78;102885.63;7386000;19;20025;-60
2022/04/29 02:06:10;;;;;;;24.88;12.10;;;;;;;6.87;77.17;102886.47;7390098;19;20404;-60
2022/04/29 02:08:38;;;;;;;23.25;11.95;;;;;;;7.00;76.64;102883.94;7391302;19;20026;-58
2022/04/29 02:11:10;;;;;;;25.63;12.55;;;;;;;6.95;76.65;102878.72;7389895;19;20070;-57
2022/04/29 02:13:39;;;;;;;23.27;12.35;;;;;;;6.93;77.65;102893.44;7387847;19;20018;-61
2022/04/29 02:16:24;;;;;;;22.48;11.70;;;;;;;7.16;76.53;102892.69;7389419;19;20015;-59
2022/04/29 02:18:54;;;;;;;19.45;11.18;;;;;;;7.14;76.16;102892.69;7388287;19;20063;-61
2022/04/29 02:21:23;;;;;;;19.23;12.00;;;;;;;6.91;76.52;102892.59;7389036;19;20025;-60
2022/04/29 02:23:52;;;;;;;27.08;12.00;;;;;;;6.91;76.70;102877.81;7387406;19;20346;-58
2022/04/29 02:26:24;;;;;;;24.85;11.73;;;;;;;6.88;76.95;102880.41;7388781;19;20014;-59
2022/04/29 02:28:53;;;;;;;30.40;12.48;;;;;;;7.02;76.79;102884.81;7388260;19;20018;-59
2022/04/29 02:31:22;;;;;;;19.30;11.38;;;;;;;7.14;76.14;102882.25;7389188;19;20633;-60
2022/04/29 02:33:51;;;;;;;22.52;12.63;;;;;;;7.22;75.62;102880.53;7389224;19;20014;-58
2022/04/29 02:36:21;;;;;;;20.58;11.40;;;;;;;6.87;77.00;102888.22;7388646;19;20014;-59
2022/04/29 02:38:50;;;;;;;25.52;12.80;;;;;;;6.80;77.56;102892.53;7388405;19;20054;-60
2022/04/29 02:41:19;;;;;;;21.55;12.07;;;;;;;6.83;77.56;102884.72;7389299;19;20467;-59
2022/04/29 02:43:51;;;;;;;26.38;11.48;;;;;;;6.89;77.71;102891.69;7388932;19;20044;-59
2022/04/29 02:46:20;;;;;;;18.17;11.57;;;;;;;6.95;77.31;102896.97;7389406;19;20025;-60
2022/04/29 02:48:49;;;;;;;21.30;11.65;;;;;;;7.06;76.75;102883.94;7390331;19;20007;-60
2022/04/29 02:51:18;;;;;;;21.52;11.18;;;;;;;6.90;77.70;102883.88;7388576;19;20452;-60
2022/04/29 02:53:47;;;;;;;22.60;11.70;;;;;;;6.96;77.37;102884.78;7389302;19;20451;-59
2022/04/29 02:56:16;;;;;;;21.95;12.15;;;;;;;6.85;77.91;102876.91;7388910;19;20014;-60
2022/04/29 02:59:06;;;;;;;23.38;12.30;;;;;;;7.10;77.00;102888.31;7391399;19;20018;-60
2022/04/29 03:01:36;;;;;;;22.35;12.75;;;;;;;6.91;77.29;102882.16;7393479;19;20015;-60
2022/04/29 03:04:07;;;;;;;22.90;12.32;;;;;;;6.82;77.82;102889.94;7389379;19;20539;-60
2022/04/29 03:06:35;;;;;;;24.63;12.23;;;;;;;6.75;78.64;102883.84;7393035;19;20018;-61
2022/04/29 03:09:05;;;;;;;23.65;12.55;;;;;;;6.80;78.28;102876.88;7392454;19;20010;-61
2022/04/29 03:11:34;;;;;;;22.25;12.02;;;;;;;6.89;77.86;102882.16;7391946;19;20029;-61
2022/04/29 03:14:06;;;;;;;21.52;12.10;;;;;;;6.96;77.63;102888.25;7387822;19;20033;-59
2022/04/29 03:16:35;;;;;;;24.38;13.18;;;;;;;6.78;78.25;102878.63;7388872;19;20030;-60
2022/04/29 03:19:04;;;;;;;23.55;12.90;;;;;;;6.89;78.34;102874.34;7387026;19;20019;-59
2022/04/29 03:21:34;;;;;;;23.30;12.15;;;;;;;6.84;78.16;102881.25;7387765;19;20018;-60
2022/04/29 03:24:03;;;;;;;19.88;11.52;;;;;;;6.78;78.44;102889.06;7386526;19;20463;-60
2022/04/29 03:26:35;;;;;;;34.53;21.50;;;;;;;6.84;78.41;102880.41;7387004;19;20006;-60
2022/04/29 03:29:07;;;;;;;34.47;16.10;;;;;;;6.75;78.60;102869.06;7387344;19;20026;-59
2022/04/29 03:31:36;;;;;;;23.77;12.43;;;;;;;6.67;78.96;102873.34;7386695;19;20011;-60
2022/04/29 03:34:28;;;;;;;19.33;11.73;;;;;;;6.78;78.70;102863.00;7386453;19;20018;-60
2022/04/29 03:36:57;;;;;;;25.98;13.05;;;;;;;6.83;78.58;102863.88;7387370;19;20483;-60
2022/04/29 03:39:28;;;;;;;26.58;13.20;;;;;;;6.83;78.36;102856.06;7385474;19;20022;-59
2022/04/29 03:41:57;;;;;;;27.85;12.40;;;;;;;6.78;78.96;102862.09;7386855;19;20555;-60
2022/04/29 03:44:28;;;;;;;25.48;11.90;;;;;;;6.71;79.11;102864.69;7385022;19;20014;-60
2022/04/29 03:46:57;;;;;;;23.33;12.68;;;;;;;6.74;78.58;102869.06;7386932;19;20022;-60
2022/04/29 03:49:49;;;;;;;27.70;12.35;;;;;;;6.81;78.45;102860.41;7385240;19;20015;-59
2022/04/29 03:52:23;;;;;;;20.30;11.57;;;;;;;6.77;78.76;102858.63;7386665;19;20033;-60
2022/04/29 03:54:56;;;;;;;21.20;11.60;;;;;;;6.62;79.19;102854.25;7385018;19;20022;-61
2022/04/29 03:57:26;;;;;;;24.98;13.05;;;;;;;6.53;79.64;102841.16;7387218;19;20007;-60
2022/04/29 03:59:58;;;;;;;21.98;12.52;;;;;;;6.68;79.49;102828.22;7386748;19;20356;-60
2022/04/29 04:02:28;;;;;;;21.65;11.57;;;;;;;6.41;80.30;102819.38;7387154;19;20047;-61
2022/04/29 04:04:57;;;;;;;23.45;12.00;;;;;;;6.55;80.35;102819.47;7385139;19;20344;-60
2022/04/29 04:07:26;;;;;;;22.77;11.70;;;;;;;6.54;79.91;102817.72;7388234;19;20017;-61
2022/04/29 04:10:14;;;;;;;23.52;11.82;;;;;;;6.52;80.36;102827.28;7387433;19;20042;-61
2022/04/29 04:12:46;;;;;;;24.67;11.88;;;;;;;6.69;79.47;102829.06;7387475;19;20030;-61
2022/04/29 04:15:36;;;;;;;18.50;11.25;;;;;;;6.57;79.98;102830.75;7388316;19;20488;-60
2022/04/29 04:18:06;;;;;;;21.57;10.73;;;;;;;6.72;79.88;102837.78;7389795;19;20010;-59
2022/04/29 04:20:35;;;;;;;23.95;11.43;;;;;;;6.71;79.07;102833.44;7388277;19;20022;-61
2022/04/29 04:23:07;;;;;;;27.50;11.98;;;;;;;6.64;79.71;102831.66;7386921;19;20011;-61
2022/04/29 04:25:36;;;;;;;21.52;10.85;;;;;;;6.66;79.65;102829.06;7387186;19;20052;-61
2022/04/29 04:28:12;;;;;;;22.60;12.02;;;;;;;6.65;79.66;102830.81;7393006;19;20182;-60
2022/04/29 04:31:06;;;;;;;24.98;11.02;;;;;;;6.71;79.46;102828.22;7393650;19;20456;-60
2022/04/29 04:33:44;;;;;;;21.48;11.45;;;;;;;6.68;79.45;102836.03;7392356;19;20021;-60
2022/04/29 04:36:13;;;;;;;25.67;11.70;;;;;;;6.67;79.86;102830.81;7393200;19;20038;-61
2022/04/29 04:38:45;;;;;;;21.00;11.35;;;;;;;6.71;79.87;102836.03;7393999;19;20019;-60
2022/04/29 04:41:16;;;;;;;24.38;11.00;;;;;;;6.86;79.33;102832.63;7393521;19;20025;-61
2022/04/29 04:43:45;;;;;;;27.20;12.02;;;;;;;6.85;78.96;102828.28;7392208;19;20136;-61
2022/04/29 04:46:18;;;;;;;27.73;11.57;;;;;;;6.80;79.36;102824.78;7393041;19;20026;-60
2022/04/29 04:48:52;;;;;;;23.65;11.38;;;;;;;6.66;79.75;102834.28;7392483;19;20042;-60
2022/04/29 04:51:44;;;;;;;27.23;11.95;;;;;;;6.73;79.90;102829.13;7394427;19;20022;-61
2022/04/29 04:54:15;;;;;;;25.13;12.07;;;;;;;6.72;79.53;102836.91;7390635;19;20353;-61
2022/04/29 04:56:44;;;;;;;33.30;12.07;;;;;;;6.80;79.54;102831.72;7393153;19;20010;-61
2022/04/29 04:59:13;;;;;;;21.73;11.63;;;;;;;6.71;79.98;102828.22;7391772;19;20021;-61
2022/04/29 05:01:45;;;;;;;25.35;11.77;;;;;;;6.62;80.26;102827.31;7394598;19;20313;-61
2022/04/29 05:04:51;;;;;;;19.80;11.20;;;;;;;6.73;79.92;102833.44;7390941;19;20411;-60
2022/04/29 05:07:43;;;;;;;23.98;12.13;;;;;;;6.71;79.94;102829.97;7391771;19;20033;-61
2022/04/29 05:10:15;;;;;;;25.17;11.88;;;;;;;6.76;80.07;102833.44;7391148;19;20018;-59
2022/04/29 05:12:45;;;;;;;30.55;12.38;;;;;;;6.77;79.96;102834.34;7394119;19;20405;-60
2022/04/29 05:15:35;;;;;;;31.45;11.65;;;;;;;6.85;79.72;102835.22;7394458;19;20108;-61
2022/04/29 05:18:09;;;;;;;23.30;12.15;;;;;;;6.87;79.53;102841.31;7394676;19;20018;-60
2022/04/29 05:20:54;;;;;;;25.42;11.07;;;;;;;6.73;80.21;102843.84;7392030;19;20014;-59
2022/04/29 05:23:23;;;;;;;24.48;12.15;;;;;;;6.80;79.68;102849.97;7391386;19;20018;-60
2022/04/29 05:26:14;;;;;;;26.33;12.10;;;;;;;6.99;79.14;102846.59;7393534;19;20025;-61
2022/04/29 05:29:06;;;;;;;23.13;11.98;;;;;;;6.70;80.23;102862.94;7393218;19;20022;-61
2022/04/29 05:32:09;;;;;;;26.55;11.93;;;;;;;6.80;80.31;102852.59;7397590;19;20015;-62
2022/04/29 05:35:01;;;;;;;22.80;11.57;;;;;;;6.84;79.67;102857.81;7391352;19;20018;-61
2022/04/29 05:37:49;;;;;;;22.70;12.17;;;;;;;6.92;79.50;102848.28;7391150;19;20022;-60
2022/04/29 05:43:03;;;;;;;22.98;12.27;;;;;;;6.74;80.50;102853.41;7391804;19;20022;-60
2022/04/29 05:45:36;;;;;;;25.40;12.48;;;;;;;6.79;80.44;102854.31;7392532;19;20031;-59
2022/04/29 05:48:06;;;;;;;34.25;13.23;;;;;;;6.84;80.62;102862.16;7390253;19;20015;-63
2022/04/29 05:50:39;;;;;;;21.55;11.60;;;;;;;6.89;80.22;102860.41;7390002;19;20352;-60
2022/04/29 05:53:08;;;;;;;27.13;12.77;;;;;;;6.96;80.24;102863.94;7390680;19;20010;-63
2022/04/29 05:55:39;;;;;;;24.25;12.55;;;;;;;6.77;80.50;102858.63;7394211;19;20015;-61
2022/04/29 05:58:08;;;;;;;28.80;13.10;;;;;;;6.83;80.58;102855.19;7394439;19;20033;-61
2022/04/29 06:00:39;;;;;;;23.92;12.05;;;;;;;6.87;80.06;102856.94;7393513;19;20805;-61
2022/04/29 06:03:11;;;;;;;32.97;13.48;;;;;;;6.83;80.67;102863.88;7394294;19;20014;-60
2022/04/29 06:05:42;;;;;;;24.52;12.80;;;;;;;7.09;79.63;102853.56;7395547;19;20014;-59
2022/04/29 06:08:12;;;;;;;24.83;13.02;;;;;;;6.98;79.54;102849.16;7391580;19;20033;-61
2022/04/29 06:10:43;;;;;;;27.38;12.93;;;;;;;7.04;79.22;102854.41;7390192;19;20149;-60
2022/04/29 06:13:12;;;;;;;25.90;12.07;;;;;;;6.98;79.60;102857.88;7393999;19;20178;-62
2022/04/29 06:16:08;;;;;;;19.48;11.52;;;;;;;6.81;80.53;102863.00;7394298;19;20011;-61
2022/04/29 06:19:03;;;;;;;27.08;12.60;;;;;;;6.96;80.47;102866.53;7392885;19;20022;-61
2022/04/29 06:21:57;;;;;;;19.15;11.70;;;;;;;6.97;79.82;102860.47;7390718;19;20014;-62
2022/04/29 06:24:26;;;;;;;21.92;11.98;;;;;;;7.16;79.37;102867.47;7389131;19;20413;-62
2022/04/29 06:26:56;;;;;;;21.98;12.48;;;;;;;7.22;79.24;102866.63;7391058;19;20038;-61
2022/04/29 06:29:25;;;;;;;23.60;11.75;;;;;;;7.16;79.64;102877.91;7390875;19;20018;-61
2022/04/29 06:31:54;;;;;;;23.05;11.98;;;;;;;7.34;79.05;102863.19;7390705;19;20022;-61
2022/04/29 06:35:01;;;;;;;22.30;11.65;;;;;;;7.30;78.92;102872.72;7391094;19;20082;-62
2022/04/29 06:37:32;;;;;;;29.08;12.60;;;;;;;7.45;78.59;102866.69;7390819;19;20017;-61
2022/04/29 06:40:22;;;;;;;24.80;12.02;;;;;;;7.32;78.73;102870.13;7389427;19;20173;-62
2022/04/29 06:42:55;;;;;;;28.13;11.75;;;;;;;7.23;79.64;102868.38;7390175;19;20022;-62
2022/04/29 06:45:42;;;;;;;24.80;12.13;;;;;;;7.44;78.93;102872.78;7391338;19;20026;-61
2022/04/29 06:48:41;;;;;;;23.55;12.30;;;;;;;7.46;78.83;102876.25;7386987;19;20130;-61
2022/04/29 06:51:32;;;;;;;26.40;12.38;;;;;;;7.68;77.96;102887.59;7391597;19;20177;-61
2022/04/29 06:54:09;;;;;;;25.00;12.13;;;;;;;7.63;78.02;102884.97;7390776;19;20018;-63
2022/04/29 06:56:41;;;;;;;26.20;11.95;;;;;;;7.78;77.87;102880.66;7390014;19;20211;-63
2022/04/29 06:59:10;;;;;;;26.10;13.07;;;;;;;7.91;77.14;102876.31;7390334;19;20021;-62
2022/04/29 07:01:42;;;;;;;27.08;12.25;;;;;;;7.94;77.25;102874.56;7391087;19;20464;-62
2022/04/29 07:04:11;;;;;;;26.02;11.43;;;;;;;8.07;76.73;102880.63;7389394;19;20182;-61
2022/04/29 07:06:40;;;;;;;24.90;11.40;;;;;;;8.09;76.38;102867.59;7390614;19;20010;-61
2022/04/29 07:09:11;;;;;;;24.92;12.40;;;;;;;8.12;76.21;102871.06;7387101;19;20028;-62
2022/04/29 07:11:59;;;;;;;29.88;11.55;;;;;;;8.17;76.06;102878.00;7393708;19;20030;-61
2022/04/29 07:14:34;;;;;;;20.73;10.65;;;;;;;8.17;76.14;102881.50;7386379;19;20413;-61
2022/04/29 07:17:14;;;;;;;22.73;11.48;;;;;;;8.16;76.05;102881.50;7389090;19;20048;-61
2022/04/29 07:19:49;;;;;;;19.88;11.10;;;;;;;8.23;76.10;102876.28;7387248;19;20014;-62
2022/04/29 07:22:19;;;;;;;21.52;11.02;;;;;;;8.26;75.40;102872.78;7388463;19;20730;-62
2022/04/29 07:24:51;;;;;;;22.50;10.77;;;;;;;8.17;76.38;102878.00;7388531;19;20018;-62
2022/04/29 07:27:21;;;;;;;;;;;;;;;8.21;75.78;102877.13;7390057;19;20002;-59
2022/04/29 07:29:51;;;;;;;21.48;9.90;;;;;;;8.16;75.50;102874.53;7386009;19;20348;-60
2022/04/29 07:32:28;;;;;;;27.83;11.57;;;;;;;8.18;75.61;102875.44;7390010;19;20006;-59
2022/04/29 07:43:15;;;;;;;22.50;11.15;;;;;;;8.92;73.28;102890.06;7387454;19;20029;-59
2022/04/29 07:45:44;;;;;;;20.50;10.50;;;;;;;8.92;73.13;102895.31;7388134;19;20018;-60
2022/04/29 07:48:36;;;;;;;23.55;10.10;;;;;;;8.73;72.68;102890.13;7388324;19;20052;-61
2022/04/29 07:51:06;;;;;;;21.70;9.30;;;;;;;8.74;72.79;102884.03;7388407;19;20015;-62
2022/04/29 07:53:35;;;;;;;22.08;9.90;;;;;;;8.65;73.45;102887.56;7387587;19;20014;-62
2022/04/29 07:56:07;;;;;;;20.35;10.38;;;;;;;8.93;72.53;102887.44;7387563;19;20074;-62
2022/04/29 07:58:39;;;;;;;19.63;9.73;;;;;;;9.02;71.88;102899.63;7387808;19;20030;-62
2022/04/29 08:01:09;;;;;;;18.48;9.13;;;;;;;9.16;71.08;102887.34;7390109;19;20017;-63
2022/04/29 08:03:42;;;;;;;20.77;9.38;;;;;;;9.38;70.48;102881.13;7395073;19;20060;-60
2022/04/29 08:06:13;;;;;;;19.13;10.00;;;;;;;9.50;70.39;102881.06;7394769;19;20015;-60
2022/04/29 08:08:43;;;;;;;18.08;9.00;;;;;;;9.68;69.40;102885.28;7394119;19;20242;-61
2022/04/29 08:11:15;;;;;;;16.40;9.40;;;;;;;9.52;69.54;102881.91;7395142;19;20560;-61
2022/04/29 08:14:06;;;;;;;14.73;9.43;;;;;;;9.69;69.89;102885.28;7394430;19;20010;-60
2022/04/29 08:16:59;;;;;;;19.20;9.45;;;;;;;10.01;68.76;102883.28;7396898;19;20023;-56
2022/04/29 08:19:50;;;;;;;20.30;9.68;;;;;;;10.20;67.98;102887.47;7395652;19;20025;-61
2022/04/29 08:22:21;;;;;;;18.73;9.40;;;;;;;10.35;68.11;102903.97;7396895;19;20010;-61
2022/04/29 08:24:52;;;;;;;15.45;9.35;;;;;;;10.36;67.04;102901.34;7391709;19;20365;-61
2022/04/29 08:27:24;;;;;;;17.48;8.90;;;;;;;10.31;67.31;102900.47;7395453;19;20123;-60
2022/04/29 08:29:53;;;;;;;18.98;9.90;;;;;;;10.54;66.16;102888.91;7393238;19;20018;-61
2022/04/29 08:32:21;;;;;;;20.05;9.45;;;;;;;10.51;65.73;102883.72;7396644;19;20010;-61
2022/04/29 08:34:51;;;;;;;21.42;10.27;;;;;;;10.54;66.10;102889.81;7393382;19;20047;-61
2022/04/29 08:37:20;;;;;;;20.40;9.82;;;;;;;10.74;65.36;102880.81;7398942;19;20015;-62
2022/04/29 08:39:52;;;;;;;22.27;9.93;;;;;;;10.82;64.84;102886.00;7398165;19;20129;-62
2022/04/29 08:42:28;;;;;;;17.58;9.32;;;;;;;10.50;63.18;102887.22;7401537;19;20334;-62
2022/04/29 08:44:59;;;;;;;41.22;11.55;;;;;;;10.52;63.09;102888.06;7399224;19;20010;-62
2022/04/29 08:47:29;;;;;;;18.92;9.98;;;;;;;10.74;63.24;102896.56;7401137;19;20018;-59
2022/04/29 08:50:12;;;;;;;26.90;10.30;;;;;;;10.83;62.23;102893.84;7391057;19;20015;-60
2022/04/29 08:52:42;;;;;;;17.70;8.95;;;;;;;11.00;61.44;102883.13;7395037;19;20113;-61
2022/04/29 09:00:41;;;;;;;19.58;8.82;;;;;;;11.07;61.71;102897.03;7393162;19;20085;-61
2022/04/29 09:03:14;;;;;;;15.60;9.18;;;;;;;11.06;62.18;102887.41;7394204;19;20089;-61
2022/04/29 09:05:43;;;;;;;18.50;9.70;;;;;;;11.14;61.95;102889.97;7394260;19;20419;-60
2022/04/29 09:08:15;;;;;;;17.23;9.07;;;;;;;11.14;62.07;102893.44;7394873;19;20409;-60
2022/04/29 09:10:50;;;;;;;20.45;9.18;;;;;;;11.58;60.80;102889.31;7393668;19;20107;-61
2022/04/29 09:13:24;;;;;;;20.55;9.95;;;;;;;11.43;61.05;102900.03;7393483;19;20523;-59
2022/04/29 09:15:57;;;;;;;22.90;10.15;;;;;;;11.87;60.70;102893.25;7397491;19;20419;-60
2022/04/29 09:18:34;;;;;;;17.73;9.35;;;;;;;11.82;60.16;102884.59;7396856;19;20025;-60
2022/04/29 09:21:07;;;;;;;16.52;9.60;;;;;;;11.96;59.83;102879.13;7393321;19;20015;-60
2022/04/29 09:23:38;;;;;;;19.40;9.68;;;;;;;12.27;58.95;102886.47;7393069;19;20023;-62
2022/04/29 09:26:27;;;;;;;35.78;11.18;;;;;;;12.20;59.40;102884.84;7394094;19;20022;-61
2022/04/29 09:29:20;;;;;;;33.97;10.60;;;;;;;12.03;59.06;102885.16;7392005;19;20018;-60
2022/04/29 09:32:11;;;;;;;16.57;9.90;;;;;;;12.21;59.28;102881.34;7394435;19;20014;-59
2022/04/29 09:34:58;;;;;;;15.38;9.55;;;;;;;12.30;58.76;102878.53;7392469;19;20022;-62
2022/04/29 09:37:29;;;;;;;16.13;9.30;;;;;;;12.37;58.18;102874.88;7393572;19;20022;-61
2022/04/29 09:40:00;;;;;;;28.07;10.30;;;;;;;12.38;57.85;102876.63;7390627;19;20478;-61
2022/04/29 09:42:39;;;;;;;17.27;9.63;;;;;;;12.53;58.85;102864.09;7393641;19;20412;-61
2022/04/29 09:45:17;;;;;;;18.85;9.77;;;;;;;12.33;57.98;102873.22;7391926;19;20022;-61
2022/04/29 09:47:46;;;;;;;19.83;9.13;;;;;;;11.99;59.13;102868.56;7393180;19;20019;-60
2022/04/29 09:50:15;;;;;;;17.55;10.02;;;;;;;12.13;59.42;102872.72;7390790;19;20010;-61
2022/04/29 09:52:45;;;;;;;24.33;10.57;;;;;;;12.46;59.52;102880.00;7392876;19;20030;-60
2022/04/29 09:55:15;;;;;;;17.38;11.07;;;;;;;12.41;59.36;102873.94;7393162;19;20034;-60
2022/04/29 09:57:52;;;;;;;18.92;11.35;;;;;;;12.58;59.32;102871.00;7392718;19;20018;-61
2022/04/29 10:00:23;;;;;;;15.60;10.07;;;;;;;12.52;58.64;102871.13;7390628;19;20085;-63
2022/04/29 10:02:52;;;;;;;22.48;10.95;;;;;;;12.39;59.35;102864.34;7391820;19;20031;-62
2022/04/29 10:05:25;;;;;;;23.77;11.57;;;;;;;12.49;58.87;102867.66;7394980;19;20022;-61
2022/04/29 10:08:13;;;;;;;30.15;11.45;;;;;;;12.26;59.19;102867.22;7393526;19;20011;-61
2022/04/29 10:10:44;;;;;;;20.10;10.35;;;;;;;12.40;59.64;102861.69;7393531;19;20025;-60
2022/04/29 10:13:15;;;;;;;22.23;10.52;;;;;;;12.37;59.18;102864.38;7390112;19;20094;-59
2022/04/29 10:16:07;;;;;;;34.35;11.60;;;;;;;12.41;58.97;102852.91;7395901;19;20351;-59
2022/04/29 10:22:00;;;;;;;22.95;10.82;;;;;;;12.58;59.22;102854.31;7391985;19;20038;-61
2022/04/29 10:24:31;;;;;;;18.70;10.57;;;;;;;12.63;57.98;102855.13;7390240;19;20310;-61
2022/04/29 10:27:00;;;;;;;17.33;10.20;;;;;;;12.59;58.03;102856.97;7392892;19;20074;-61
2022/04/29 10:29:29;;;;;;;19.05;9.70;;;;;;;12.70;57.95;102858.50;7390158;19;20103;-61
2022/04/29 10:32:13;;;;;;;17.70;9.57;;;;;;;12.44;57.67;102855.47;7391233;19;20320;-62
2022/04/29 10:34:42;;;;;;;20.52;9.35;;;;;;;12.45;58.51;102849.31;7389072;19;20483;-60
2022/04/29 10:37:15;;;;;;;19.23;9.25;;;;;;;12.61;58.16;102844.63;7390132;19;20018;-60
2022/04/29 10:40:04;;;;;;;17.85;9.52;;;;;;;12.68;58.45;102858.53;7390387;19;20332;-60
2022/04/29 10:43:08;;;;;;;17.23;9.30;;;;;;;12.79;57.99;102859.19;7393659;19;20099;-61
2022/04/29 10:45:38;;;;;;;18.85;9.18;;;;;;;12.72;57.22;102860.19;7396683;19;20022;-61
2022/04/29 10:48:36;;;;;;;16.13;9.15;;;;;;;12.66;57.12;102856.81;7397209;19;20010;-60
2022/04/29 10:51:48;;;;;;;22.75;9.23;;;;;;;12.81;57.47;102846.00;7396894;19;20126;-62
2022/04/29 10:54:47;;;;;;;23.83;9.70;;;;;;;12.95;56.90;102854.44;7393257;19;20079;-61
2022/04/29 10:57:43;;;;;;;16.95;8.82;;;;;;;12.74;57.06;102847.88;7391808;19;20106;-60
2022/04/29 11:00:22;;;;;;;21.15;9.65;;;;;;;12.70;57.03;102842.72;7390847;19;20014;-60
2022/04/29 11:02:52;;;;;;;16.90;9.70;;;;;;;12.53;57.71;102837.78;7392206;19;20014;-60
2022/04/29 11:05:39;;;;;;;16.63;8.80;;;;;;;12.41;57.46;102834.50;7392332;19;20015;-61
2022/04/29 11:08:13;;;;;;;18.23;9.63;;;;;;;12.60;56.81;102845.50;7392524;19;20011;-62
2022/04/29 11:10:56;;;;;;;18.55;9.63;;;;;;;12.49;57.00;102839.59;7391425;19;20015;-61
2022/04/29 11:13:26;;;;;;;39.08;10.80;;;;;;;12.64;56.88;102839.28;7390143;19;20022;-61
2022/04/29 11:16:12;;;;;;;18.52;9.15;;;;;;;12.65;57.28;102832.25;7391317;19;20030;-61
2022/04/29 11:19:22;;;;;;;61.80;12.13;;;;;;;12.78;57.24;102833.75;7389926;19;20022;-60
2022/04/29 11:24:50;;;;;;;17.23;9.20;;;;;;;12.81;57.11;102838.09;7384584;19;20369;-60
2022/04/29 11:27:31;;;;;;;23.38;9.10;;;;;;;12.39;57.86;102840.69;7388598;19;20011;-63
2022/04/29 11:30:02;;;;;;;18.42;9.38;;;;;;;12.61;57.23;102839.38;7386086;19;20010;-60
2022/04/29 11:33:03;;;;;;;14.88;8.38;;;;;;;12.52;57.11;102830.78;7388362;19;20011;-60
2022/04/29 11:35:32;;;;;;;16.77;9.30;;;;;;;12.62;56.77;102829.69;7385684;19;20010;-61
2022/04/29 11:38:04;;;;;;;19.02;9.43;;;;;;;12.72;56.62;102830.38;7390040;19;20014;-60
2022/04/29 11:40:39;;;;;;;22.98;9.10;;;;;;;12.74;56.59;102826.81;7388165;19;20018;-63
2022/04/29 11:43:11;;;;;;;19.38;9.45;;;;;;;12.74;56.52;102818.94;7388737;19;20480;-61
2022/04/29 11:45:42;;;;;;;18.17;8.98;;;;;;;12.78;57.02;102820.59;7388914;19;20364;-61
2022/04/29 11:48:12;;;;;;;18.43;9.00;;;;;;;12.46;57.49;102819.50;7388147;19;20029;-61
2022/04/29 11:50:41;;;;;;;16.85;9.63;;;;;;;12.60;57.45;102826.25;7386985;19;20854;-62
2022/04/29 11:53:13;;;;;;;16.65;9.02;;;;;;;12.53;57.10;102814.13;7388467;19;20368;-61
2022/04/29 11:55:43;;;;;;;20.75;9.45;;;;;;;12.66;57.78;102820.84;7386825;19;20130;-62
2022/04/29 11:58:12;;;;;;;18.33;9.20;;;;;;;12.69;56.92;102823.41;7389166;19;20017;-60
2022/04/29 12:00:41;;;;;;;15.30;9.43;;;;;;;12.83;56.65;102827.53;7387537;19;20031;-61
2022/04/29 12:03:21;;;;;;;19.00;9.95;;;;;;;12.73;56.76;102829.50;7385985;19;20021;-60
2022/04/29 12:05:50;;;;;;;15.10;8.95;;;;;;;12.76;56.74;102824.16;7388415;19;20038;-61
2022/04/29 12:08:24;;;;;;;12.67;8.90;;;;;;;12.84;56.64;102823.97;7386599;19;20018;-60
2022/04/29 12:10:57;;;;;;;14.02;9.07;;;;;;;12.93;56.69;102826.44;7384723;19;20026;-61
2022/04/29 12:13:28;;;;;;;18.95;9.88;;;;;;;12.93;57.07;102824.66;7387098;19;20015;-62
2022/04/29 12:15:57;;;;;;;18.55;8.95;;;;;;;12.96;56.61;102831.63;7394445;19;20047;-61